Hauptseite
METAR-TAF:

METAR-TAF

Flughäfen :

Taschkent, Usbekistan

Flughafen Taschkent

Breite: 41-16N, Länge: 069-16E, Höhe: 489 m

Beobachtung

Neuester Wetterbericht von vor 15 Minuten, um 04:30 UTC
Wind 4 kt aus Ost
Temperatur 8°C
Luftfeuchtigkeit 49%
Luftdruck 1026 hPa
Sichtweite: 7000 m

METAR: UTTT 180430Z 08004KT 7000 NSC 08/M02 Q1026 R08R/CLRD70 NOSIG

Zeit: 09:45 (04:45 UTC)

Prognose

Neuester Wetterbericht von vor 5 Stunden und 45 Minuten, um 23:00 UTC
Gültige Prognose vom 18 um 00 UTC bis 18 um 24 UTC
Wind 8 kt aus Ost/Nordost
Sichtweite: 6000 m
Zeitweise
vom 18 um 00 UTC bis 18 um 03 UTC
Sichtweite: 2000 m
feuchter Dunst, Rauch

TAF: UTTT 172300Z 1800/1824 07008KT 6000 NSC TEMPO 1800/1803 2000 BR FU

Wetterbeobachtungen und Prognosen von mehr als 4000 Flughäfen (METAR und TAF Bericht).

Die verfügbaren Stationen werden durch gelbe und rote Markierungen auf der Karte dargestellt.

Führen Sie die Maus auf sie, um den Namen der Station zu sehen.

Darauf klicken, um die Beobachtung von Wetterbeobachtungen und Prognosen zu sehen.

Um die Karte zu ändern : klicken Sie auf den grünen Tasten mit einem schwarzen Kreuz Zum Vergrößern, auf den grünen Button mit einem Gedankenstrich zu verkleinern, oder auf die grünen Pfeile für benachbarte Karten.


METAR-TAF: